PST,Max TemperatureF,Mean TemperatureF,Min TemperatureF,Max Dew PointF,MeanDew PointF,Min DewpointF,Max Humidity, Mean Humidity, Min Humidity, Max Sea Level PressureIn, Mean Sea Level PressureIn, Min Sea Level PressureIn, Max VisibilityMiles, Mean VisibilityMiles, Min VisibilityMiles, Max Wind SpeedMPH, Mean Wind SpeedMPH, Max Gust SpeedMPH,PrecipitationIn, CloudCover, Events, WindDirDegrees
2013-1-1,42,33,24,29,26,23,100,75,49,30.48,30.43,30.38,10,10,6,8,4,11,0.00,0,,343
2013-1-2,42,33,23,28,23,21,92,71,49,30.37,30.31,30.24,10,10,10,18,7,22,0.00,0,Snow,39
2013-1-3,40,32,23,30,24,21,88,68,48,30.26,30.21,30.17,10,10,10,17,4,22,T,4,Rain,341
2013-1-4,42,37,31,39,35,31,100,91,82,30.37,30.27,30.20,10,4,0,8,2,8,T,7,Fog-Rain,298
2013-1-5,40,37,33,34,31,28,100,85,70,30.24,30.21,30.19,10,8,5,10,2,13,T,7,Rain,265
2013-1-6,43,38,33,41,36,32,100,90,79,30.26,30.18,30.07,9,5,2,7,1,9,0.09,8,Rain,152
2013-1-7,53,48,43,49,44,41,97,90,74,30.22,30.09,30.00,10,9,5,15,9,18,0.13,8,Rain,189
2013-1-8,53,48,42,49,46,41,100,89,77,30.21,30.07,29.90,10,7,2,18,9,25,0.12,8,Rain,174
2013-1-9,51,41,31,44,37,30,100,87,74,30.00,29.88,29.72,10,9,6,21,5,27,0.14,6,Rain,217
2013-1-10,41,35,28,34,32,27,100,90,79,30.12,30.07,30.00,10,6,0,9,2,12,0.05,7,Fog-Rain-Snow,272
2013-1-11,40,32,24,32,27,23,100,80,59,30.33,30.26,30.13,10,6,0,9,2,13,0.00,1,Fog,265
2013-1-12,31,26,21,28,24,20,100,94,88,30.44,30.37,30.32,6,1,0,8,1,10,0.00,6,Fog,340
2013-1-13,29,28,26,26,25,23,92,89,85,30.53,30.48,30.43,9,4,0,6,2,7,T,8,Fog-Snow,301
2013-1-14,32,30,27,31,28,24,92,89,85,30.58,30.56,30.51,8,3,1,6,2,7,0.02,8,Snow,251
2013-1-15,38,35,32,34,32,31,100,91,82,30.68,30.63,30.57,10,4,0,10,3,12,0.00,8,Fog,359
2013-1-16,35,33,31,32,31,31,100,95,89,30.67,30.60,30.52,10,3,0,6,1,7,0.00,8,Fog,45
2013-1-17,43,35,26,33,29,25,100,84,67,30.51,30.41,30.33,10,4,0,6,2,9,0.00,5,Fog,333
2013-1-18,42,34,25,34,27,24,100,85,70,30.35,30.32,30.29,10,2,0,5,0,6,0.00,3,Fog,350
2013-1-19,36,31,26,34,29,23,100,92,84,30.37,30.32,30.28,4,1,0,6,1,7,0.00,5,Fog,311
2013-1-20,42,33,24,33,26,22,100,84,67,30.39,30.33,30.26,10,4,0,5,0,6,0.00,1,Fog,327
2013-1-21,42,32,21,29,23,20,100,79,57,30.30,30.24,30.18,10,5,0,6,1,7,0.00,2,Fog,281
2013-1-22,42,31,20,29,24,19,100,75,49,30.18,30.09,29.98,10,8,3,6,2,7,0.00,0,,296
2013-1-23,36,34,32,33,30,25,100,82,64,30.23,30.03,29.94,10,6,2,9,2,9,0.22,8,Rain,308
2013-1-24,40,36,32,38,35,32,100,93,85,30.26,30.19,30.13,5,2,0,14,1,16,0.12,8,Fog-Rain,253
2013-1-25,47,43,38,45,40,37,100,93,86,30.14,30.06,29.97,6,3,1,7,1,8,0.09,8,Rain,316
2013-1-26,45,39,32,40,37,32,100,85,70,30.11,30.00,29.95,10,5,0,12,3,15,0.16,7,Fog-Rain,227
2013-1-27,42,38,33,38,36,33,100,91,82,30.17,30.11,30.06,10,5,0,10,4,13,0.05,8,Fog-Rain,251
2013-1-28,44,40,36,41,38,35,100,95,89,30.22,30.16,30.11,10,7,2,8,2,11,0.23,8,Rain,217
2013-1-29,49,45,40,45,42,39,96,89,82,30.47,30.37,30.22,10,6,2,12,5,16,0.02,8,Rain,179
2013-1-30,51,47,43,45,43,40,93,84,74,30.47,30.44,30.42,10,10,6,14,6,18,0.02,8,Rain,180
2013-1-31,52,46,40,46,43,38,100,89,77,30.46,30.41,30.34,10,4,0,6,2,7,T,7,Fog-Rain,340